CDT,Max TemperatureF,Mean TemperatureF,Min TemperatureF,Max Dew PointF,MeanDew PointF,Min DewpointF,Max Humidity, Mean Humidity, Min Humidity, Max Sea Level PressureIn, Mean Sea Level PressureIn, Min Sea Level PressureIn, Max VisibilityMiles, Mean VisibilityMiles, Min VisibilityMiles, Max Wind SpeedMPH, Mean Wind SpeedMPH, Max Gust SpeedMPH,PrecipitationIn, CloudCover, Events, WindDirDegrees
2011-10-1,80,65,50,57,51,46,94,66,34,30.18,30.11,30.06,10,10,10,12,4,21,0.00,0,,4
2011-10-2,75,62,48,55,50,46,100,71,38,30.24,30.18,30.15,10,10,10,10,4,17,0.00,0,,9
2011-10-3,78,62,46,55,49,45,100,72,32,30.27,30.21,30.17,10,10,10,9,1,,0.00,0,,61
2011-10-4,82,64,46,59,52,46,100,72,30,30.28,30.21,30.16,10,10,10,7,1,,0.00,0,,53
2011-10-5,86,68,50,59,54,50,100,68,33,30.20,30.16,30.10,10,10,10,9,2,,0.00,0,,86
2011-10-6,84,70,57,68,63,57,100,79,51,30.18,30.13,30.10,10,10,4,12,3,18,0.00,1,,104
2011-10-7,86,73,60,70,65,61,100,79,51,30.21,30.16,30.13,10,10,10,15,4,18,0.00,1,,99
2011-10-8,86,75,64,70,64,59,94,74,42,30.18,30.14,30.10,10,10,10,18,6,24,0.00,1,,82
2011-10-9,84,75,66,70,65,61,88,75,54,30.10,30.06,29.99,10,10,10,12,5,21,0.00,2,,75
2011-10-10,84,73,62,68,66,63,100,81,58,30.02,29.96,29.90,10,10,10,10,4,,0.00,1,,26
2011-10-11,80,70,60,68,65,61,100,84,61,29.93,29.89,29.84,10,10,7,10,3,,0.00,4,,357
2011-10-12,84,72,59,72,66,59,100,85,55,29.89,29.85,29.77,10,9,0,13,1,23,0.02,3,Fog-Rain-Thunderstorm,183
2011-10-13,84,72,60,70,62,54,100,76,35,29.88,29.82,29.79,10,8,0,13,3,20,0.01,1,Fog,306
2011-10-14,84,68,51,61,55,52,100,69,33,30.01,29.96,29.89,10,10,10,7,1,,0.00,0,,62
2011-10-15,87,69,51,63,57,52,100,73,33,30.12,30.07,30.04,10,10,10,7,1,,0.00,0,,54
2011-10-16,89,70,51,66,58,52,100,73,33,30.14,30.09,30.03,10,10,10,12,2,,0.00,0,,117
2011-10-17,87,69,51,72,61,52,100,81,40,30.04,29.95,29.85,10,10,10,10,2,,0.00,0,,132
2011-10-18,84,70,55,73,64,50,100,87,58,29.84,29.75,29.64,10,6,0,25,5,38,0.01,7,Fog,310
2011-10-19,64,53,42,48,41,36,100,70,34,30.05,29.91,29.86,10,10,10,26,9,32,0.00,0,,302
2011-10-20,69,51,33,45,37,34,100,66,27,30.15,30.10,30.05,10,10,10,14,2,20,0.00,0,,293
2011-10-21,77,57,37,52,41,37,100,67,26,30.26,30.20,30.15,10,10,10,7,1,,0.00,0,,344
2011-10-22,78,61,44,55,48,45,100,67,34,30.22,30.15,30.09,10,10,10,7,1,,0.00,1,,61
2011-10-23,80,64,48,63,56,48,100,79,44,30.13,30.08,30.03,10,10,7,10,2,,0.05,3,Rain,139
2011-10-24,82,68,53,66,58,48,100,80,32,30.22,30.16,30.11,10,8,0,12,2,16,0.01,2,Fog,351
2011-10-25,80,63,46,63,55,46,100,77,45,30.23,30.18,30.12,10,10,10,13,3,16,0.00,0,,125
2011-10-26,82,66,51,64,58,52,100,77,39,30.11,30.04,29.97,10,10,7,9,2,,0.00,0,,140
2011-10-27,84,68,53,66,61,54,100,77,45,29.98,29.93,29.87,10,9,2,9,1,,0.00,1,,149
2011-10-28,64,60,55,64,59,50,100,96,82,30.10,29.98,29.91,10,8,3,20,4,25,0.02,6,Rain,332
2011-10-29,68,54,41,45,40,36,100,67,32,30.24,30.17,30.12,10,10,10,18,7,26,0.00,0,,349
2011-10-30,69,52,35,54,43,36,100,74,40,30.24,30.19,30.15,10,10,10,8,1,,0.00,1,,63
2011-10-31,75,58,41,52,46,41,100,74,34,30.25,30.20,30.14,10,10,7,10,2,,0.00,0,,356